Time;durP1;ratioP1;P1;durP2;ratioP2;P2;SDS_P1;SDS_P2;PMS_P1;PMS_P2;Temp;Humidity;BMP_temperature;BMP_pressure;BME280_temperature;BME280_humidity;BME280_pressure;Samples;Min_cycle;Max_cycle;Signal;HPM_P1;HPM_P2
2021/01/19 00:01:59;;;;;;;186.47;80.17;;;;;;;-13.83;72.14;100704.13;1666943;83;25585;-79
2021/01/19 00:04:25;;;;;;;182.67;77.93;;;;;;;-13.84;72.08;100704.98;1667380;82;25842;-78
2021/01/19 00:06:51;;;;;;;172.80;70.30;;;;;;;-13.85;72.19;100705.41;1666491;84;25526;-78
2021/01/19 00:09:18;;;;;;;174.50;77.33;;;;;;;-13.85;72.13;100699.13;1667038;84;25846;-78
2021/01/19 00:11:44;;;;;;;177.40;76.47;;;;;;;-13.89;72.13;100694.50;1666940;84;25912;-78
2021/01/19 00:14:11;;;;;;;182.70;75.70;;;;;;;-13.90;72.17;100694.09;1667153;82;26358;-78
2021/01/19 00:16:37;;;;;;;184.23;77.47;;;;;;;-13.93;72.17;100692.02;1666763;82;26157;-78
2021/01/19 00:19:23;;;;;;;193.30;78.10;;;;;;;-13.92;72.22;100690.75;1668153;84;26651;-78
2021/01/19 00:21:50;;;;;;;185.20;76.77;;;;;;;-13.90;72.36;100690.33;1667713;84;25742;-78
2021/01/19 00:24:16;;;;;;;181.47;76.77;;;;;;;-13.83;72.39;100685.28;1667092;83;26503;-77
2021/01/19 00:26:43;;;;;;;178.10;79.77;;;;;;;-13.78;72.46;100683.17;1666465;84;26480;-78
2021/01/19 00:29:09;;;;;;;180.83;78.17;;;;;;;-13.71;72.59;100678.98;1673373;82;26354;-78
2021/01/19 00:31:36;;;;;;;186.23;75.10;;;;;;;-13.68;72.57;100679.80;1674023;84;25942;-78
2021/01/19 00:34:02;;;;;;;186.53;78.73;;;;;;;-13.62;72.64;100677.69;1674879;83;25909;-78
2021/01/19 00:36:29;;;;;;;184.73;76.33;;;;;;;-13.57;72.63;100674.74;1673046;84;25777;-78
2021/01/19 00:38:56;;;;;;;165.83;72.90;;;;;;;-13.66;72.43;100677.30;1655264;84;26473;-78
2021/01/19 00:41:22;;;;;;;182.13;73.33;;;;;;;-13.63;72.58;100674.77;1666923;84;25926;-78
2021/01/19 00:43:49;;;;;;;191.37;80.13;;;;;;;-13.55;72.68;100670.98;1661123;84;25889;-78
2021/01/19 00:46:15;;;;;;;182.63;76.27;;;;;;;-13.50;72.66;100665.52;1647217;84;25965;-78
2021/01/19 00:48:43;;;;;;;183.37;77.20;;;;;;;-13.51;72.58;100673.88;1666234;84;26391;-77
2021/01/19 00:51:09;;;;;;;175.73;74.17;;;;;;;-13.48;72.63;100672.61;1652753;84;25646;-78
2021/01/19 00:53:36;;;;;;;153.57;70.93;;;;;;;-13.46;72.62;100670.50;1666385;84;25794;-78
2021/01/19 00:56:03;;;;;;;176.87;73.27;;;;;;;-13.45;72.50;100678.88;1643941;84;25948;-78
2021/01/19 00:58:30;;;;;;;167.27;70.23;;;;;;;-13.51;72.42;100673.88;1637639;86;26000;-78
2021/01/19 01:00:57;;;;;;;169.83;74.97;;;;;;;-13.53;72.43;100674.30;1638062;85;25798;-78
2021/01/19 01:03:23;;;;;;;167.73;71.73;;;;;;;-13.52;72.49;100664.26;1637698;85;25810;-78
2021/01/19 01:05:50;;;;;;;174.83;72.73;;;;;;;-13.48;72.52;100665.06;1636937;84;26269;-78
2021/01/19 01:08:16;;;;;;;161.30;68.70;;;;;;;-13.49;72.43;100659.21;1667129;84;25821;-78
2021/01/19 01:10:43;;;;;;;165.00;73.97;;;;;;;-13.49;72.49;100654.61;1674314;84;26308;-79
2021/01/19 01:13:09;;;;;;;162.87;71.17;;;;;;;-13.51;72.46;100650.84;1673024;84;26464;-78
2021/01/19 01:15:37;;;;;;;159.93;67.10;;;;;;;-13.50;72.49;100642.47;1672788;84;25795;-78
2021/01/19 01:18:13;;;;;;;167.50;66.47;;;;;;;-13.46;72.48;100642.03;1672798;84;25684;-78
2021/01/19 01:20:41;;;;;;;173.73;70.80;;;;;;;-13.46;72.60;100642.86;1672892;84;25464;-79
2021/01/19 01:23:13;;;;;;;160.33;72.23;;;;;;;-13.44;72.58;100634.06;1673027;84;25851;-78
2021/01/19 01:25:36;;;;;;;171.17;66.13;;;;;;;-13.44;72.57;100632.81;1672227;84;25352;-78
2021/01/19 01:28:03;;;;;;;173.37;71.03;;;;;;;-13.46;72.58;100631.98;1666973;84;25592;-78
2021/01/19 01:30:29;;;;;;;148.67;70.27;;;;;;;-13.51;72.53;100637.02;1654286;85;25837;-78
2021/01/19 01:32:56;;;;;;;165.80;69.97;;;;;;;-13.50;72.71;100633.68;1656144;84;25918;-78
2021/01/19 01:35:23;;;;;;;160.90;65.27;;;;;;;-13.45;72.82;100635.75;1655435;85;26397;-78
2021/01/19 01:37:52;;;;;;;146.97;68.40;;;;;;;-13.42;72.75;100634.91;1654985;85;25676;-78
2021/01/19 01:40:22;;;;;;;150.23;66.93;;;;;;;-13.46;72.70;100634.06;1656599;84;25741;-78
2021/01/19 01:42:56;;;;;;;164.57;67.67;;;;;;;-13.44;72.83;100622.33;1655453;84;26528;-78
2021/01/19 01:45:26;;;;;;;165.47;67.50;;;;;;;-13.35;72.92;100623.95;1656212;84;25825;-79
2021/01/19 01:47:55;;;;;;;165.10;67.30;;;;;;;-13.32;72.82;100605.51;1654698;84;25796;-78
2021/01/19 01:50:23;;;;;;;156.02;70.55;;;;;;;-13.29;72.82;100608.83;1655395;85;26425;-77
2021/01/19 01:52:50;;;;;;;165.53;68.77;;;;;;;-13.28;72.82;100596.69;1654911;84;25841;-78
2021/01/19 01:55:17;;;;;;;161.47;72.27;;;;;;;-13.27;72.78;100597.09;1655171;84;26784;-78
2021/01/19 01:57:44;;;;;;;166.57;72.37;;;;;;;-13.24;72.85;100596.20;1654515;84;25754;-78
2021/01/19 02:00:12;;;;;;;164.77;71.20;;;;;;;-13.25;72.79;100575.27;1654141;83;25778;-78
2021/01/19 02:02:51;;;;;;;165.97;69.67;;;;;;;-13.25;72.76;100580.72;1654279;84;25833;-78
2021/01/19 02:05:19;;;;;;;162.90;70.27;;;;;;;-13.27;72.75;100582.01;1656586;84;26486;-79
2021/01/19 02:08:26;;;;;;;156.27;70.37;;;;;;;-13.28;72.84;100581.61;1654267;85;25778;-78
2021/01/19 02:11:38;;;;;;;152.80;67.33;;;;;;;-13.30;72.88;100568.20;1655633;84;25722;-77
2021/01/19 02:14:30;;;;;;;170.00;69.57;;;;;;;-13.32;72.81;100581.20;1607301;87;26433;-78
2021/01/19 02:17:32;;;;;;;173.30;73.33;;;;;;;-13.32;73.00;100577.86;1607546;87;25799;-78
2021/01/19 02:20:44;;;;;;;167.63;70.43;;;;;;;-13.31;73.17;100584.54;1583930;88;26196;-78
2021/01/19 02:23:45;;;;;;;158.23;68.30;;;;;;;-13.29;73.35;100579.92;1577091;89;25964;-77
2021/01/19 02:27:02;;;;;;;157.80;70.03;;;;;;;-13.22;73.51;100584.04;1551473;90;26100;-78
2021/01/19 02:30:16;;;;;;;147.33;64.77;;;;;;;-13.19;73.63;100582.77;1510086;92;26426;-78
2021/01/19 02:33:16;;;;;;;158.53;69.17;;;;;;;-13.08;73.80;100585.20;1461427;93;26662;-79
2021/01/19 02:35:54;;;;;;;152.82;66.72;;;;;;;-13.00;73.87;100573.41;1508760;93;25857;-77
2021/01/19 02:38:40;;;;;;;153.23;66.73;;;;;;;-12.95;73.89;100570.87;1510171;93;26010;-78
2021/01/19 02:41:08;;;;;;;169.13;69.30;;;;;;;-12.93;73.92;100565.41;1510209;93;26965;-78
2021/01/19 02:43:40;;;;;;;166.87;70.90;;;;;;;-12.91;74.04;100559.09;1510695;93;25933;-78
2021/01/19 02:46:07;;;;;;;151.17;64.97;;;;;;;-12.83;74.23;100565.72;1509831;93;25873;-78
2021/01/19 02:48:34;;;;;;;168.50;68.57;;;;;;;-12.80;74.22;100562.34;1508767;93;26995;-78
2021/01/19 02:51:00;;;;;;;171.47;68.97;;;;;;;-12.77;74.26;100564.43;1508930;93;27054;-77
2021/01/19 02:53:27;;;;;;;153.87;68.17;;;;;;;-12.73;74.41;100550.13;1508447;93;25988;-78
2021/01/19 02:55:53;;;;;;;165.83;67.03;;;;;;;-12.67;74.45;100544.20;1510111;93;26646;-78
2021/01/19 02:59:00;;;;;;;163.27;71.00;;;;;;;-12.61;74.51;100546.66;1504084;92;26561;-78
2021/01/19 03:01:32;;;;;;;163.23;70.20;;;;;;;-12.59;74.49;100539.50;1504121;93;26643;-78
2021/01/19 03:04:00;;;;;;;167.57;70.00;;;;;;;-12.53;74.50;100546.16;1554827;89;26453;-78
2021/01/19 03:06:31;;;;;;;166.60;71.30;;;;;;;-12.49;74.63;100546.55;1585879;89;26386;-77
2021/01/19 03:09:00;;;;;;;155.33;68.13;;;;;;;-12.46;74.56;100531.41;1586445;89;25687;-77
2021/01/19 03:11:27;;;;;;;158.07;71.97;;;;;;;-12.46;74.55;100538.13;1588346;89;25828;-77
2021/01/19 03:13:53;;;;;;;168.30;67.67;;;;;;;-12.48;74.58;100534.36;1586924;89;27268;-78
2021/01/19 03:16:23;;;;;;;163.03;66.17;;;;;;;-12.42;74.73;100535.98;1585634;89;25863;-78
2021/01/19 03:18:51;;;;;;;151.82;66.40;;;;;;;-12.42;74.75;100530.95;1584051;89;26681;-77
2021/01/19 03:21:17;;;;;;;171.00;67.83;;;;;;;-12.39;74.87;100525.88;1585580;89;26442;-77
2021/01/19 03:23:44;;;;;;;159.03;69.50;;;;;;;-12.33;74.96;100525.80;1584035;89;25973;-77
2021/01/19 03:26:10;;;;;;;176.70;68.73;;;;;;;-12.35;74.82;100523.31;1586669;89;25817;-77
2021/01/19 03:28:37;;;;;;;167.10;70.50;;;;;;;-12.35;74.87;100514.50;1586140;88;26795;-78
2021/01/19 03:31:05;;;;;;;161.37;68.70;;;;;;;-12.34;74.86;100510.30;1585270;88;25910;-78
2021/01/19 03:33:32;;;;;;;155.07;67.47;;;;;;;-12.36;74.96;100498.14;1585298;89;25920;-78
2021/01/19 03:35:59;;;;;;;177.93;73.60;;;;;;;-12.25;74.98;100504.31;1586615;89;26559;-77
2021/01/19 03:38:26;;;;;;;170.47;75.13;;;;;;;-12.22;75.09;100497.58;1587721;89;25701;-77
2021/01/19 03:40:52;;;;;;;176.37;72.27;;;;;;;-12.15;75.12;100494.11;1587338;89;26465;-77
2021/01/19 03:43:19;;;;;;;164.03;69.57;;;;;;;-12.12;74.98;100491.98;1587080;89;25849;-78
2021/01/19 03:45:45;;;;;;;175.70;74.03;;;;;;;-12.09;75.06;100490.69;1587021;89;25892;-77
2021/01/19 03:48:12;;;;;;;153.13;69.87;;;;;;;-12.05;75.09;100482.68;1587678;88;26784;-77
2021/01/19 03:51:04;;;;;;;167.23;70.20;;;;;;;-12.03;75.11;100483.07;1586878;89;25755;-78
2021/01/19 03:53:31;;;;;;;158.50;68.03;;;;;;;-11.99;75.19;100483.42;1587367;89;25733;-79
2021/01/19 03:55:57;;;;;;;174.77;68.63;;;;;;;-11.94;75.20;100482.94;1587610;89;25690;-79
2021/01/19 03:58:23;;;;;;;182.00;76.63;;;;;;;-11.88;75.23;100482.02;1587138;89;25782;-78
2021/01/19 04:00:50;;;;;;;180.23;75.70;;;;;;;-11.85;75.16;100476.91;1586016;88;26665;-78
2021/01/19 04:03:16;;;;;;;167.77;72.10;;;;;;;-11.86;75.06;100474.02;1587568;89;26387;-78
2021/01/19 04:05:43;;;;;;;172.90;75.60;;;;;;;-11.88;75.06;100472.77;1588278;89;25727;-79
2021/01/19 04:08:09;;;;;;;182.83;73.20;;;;;;;-11.87;75.17;100472.34;1585791;89;26437;-79
2021/01/19 04:10:36;;;;;;;174.00;76.27;;;;;;;-11.86;75.20;100471.07;1588516;89;25874;-79
2021/01/19 04:13:02;;;;;;;168.57;72.43;;;;;;;-11.87;75.24;100459.33;1586800;89;26409;-79
2021/01/19 04:15:28;;;;;;;175.97;72.10;;;;;;;-11.82;75.28;100459.65;1587955;89;26650;-79
2021/01/19 04:17:55;;;;;;;173.73;73.07;;;;;;;-11.83;75.25;100448.74;1584386;89;25771;-79
2021/01/19 04:20:22;;;;;;;159.53;68.30;;;;;;;-11.85;75.25;100446.23;1589361;89;26503;-79
2021/01/19 04:22:48;;;;;;;158.63;68.20;;;;;;;-11.84;75.34;100438.23;1589084;88;25791;-79
2021/01/19 04:25:14;;;;;;;165.10;68.00;;;;;;;-11.81;75.41;100443.66;1585352;88;26437;-78
2021/01/19 04:27:41;;;;;;;162.43;72.50;;;;;;;-11.78;75.51;100458.33;1586046;88;25763;-79
2021/01/19 04:30:10;;;;;;;165.03;70.00;;;;;;;-11.74;75.53;100450.29;1584110;88;25745;-79
2021/01/19 04:32:37;;;;;;;152.30;69.87;;;;;;;-11.70;75.68;100451.92;1583744;89;25823;-79
2021/01/19 04:35:06;;;;;;;169.40;71.83;;;;;;;-11.64;75.79;100446.35;1588294;89;26040;-79
2021/01/19 04:37:33;;;;;;;165.53;71.77;;;;;;;-11.55;75.89;100435.72;1590159;89;25650;-79
2021/01/19 04:39:59;;;;;;;176.93;76.27;;;;;;;-11.50;75.86;100433.53;1586070;89;25979;-79
2021/01/19 04:42:28;;;;;;;169.37;73.10;;;;;;;-11.46;75.81;100431.38;1586884;89;25862;-78
2021/01/19 04:44:55;;;;;;;162.87;72.83;;;;;;;-11.42;75.88;100436.77;1587018;89;26518;-78
2021/01/19 04:47:21;;;;;;;168.57;70.57;;;;;;;-11.37;75.93;100435.44;1587096;89;25767;-79
2021/01/19 04:49:50;;;;;;;174.23;73.50;;;;;;;-11.35;75.89;100426.13;1587802;89;25783;-78
2021/01/19 04:52:18;;;;;;;166.27;73.23;;;;;;;-11.31;75.97;100431.55;1585570;89;25783;-79
2021/01/19 04:55:43;;;;;;;165.23;68.70;;;;;;;-11.27;76.04;100434.84;1584983;89;25889;-78
2021/01/19 04:58:14;;;;;;;155.80;71.07;;;;;;;-11.25;76.07;100435.22;1622589;85;26128;-79
2021/01/19 05:00:41;;;;;;;172.27;70.50;;;;;;;-11.22;76.18;100431.38;1621239;86;25805;-78
2021/01/19 05:03:20;;;;;;;168.03;69.73;;;;;;;-11.19;76.25;100430.06;1621880;86;25861;-78
2021/01/19 05:06:15;;;;;;;174.80;75.30;;;;;;;-11.14;76.29;100424.95;1621870;86;25810;-79
2021/01/19 05:08:47;;;;;;;173.27;73.70;;;;;;;-11.09;76.30;100422.35;1623206;86;25833;-79
2021/01/19 05:11:22;;;;;;;170.17;69.77;;;;;;;-11.07;76.24;100429.47;1622856;86;25852;-79
2021/01/19 05:14:01;;;;;;;178.93;75.70;;;;;;;-11.03;76.30;100422.23;1621816;86;25427;-79
2021/01/19 05:16:32;;;;;;;185.30;75.65;;;;;;;-11.03;76.20;100424.76;1622756;86;25943;-79
2021/01/19 05:19:05;;;;;;;182.47;71.97;;;;;;;-11.03;76.23;100426.02;1622079;86;26687;-79
2021/01/19 05:21:39;;;;;;;162.30;69.57;;;;;;;-11.01;76.25;100424.31;1622285;86;26523;-79
2021/01/19 05:24:06;;;;;;;171.73;71.90;;;;;;;-10.99;76.27;100427.64;1624107;86;25756;-79
2021/01/19 05:26:34;;;;;;;176.33;72.57;;;;;;;-10.97;76.27;100430.55;1621874;86;26634;-79
2021/01/19 05:29:03;;;;;;;165.60;72.67;;;;;;;-10.95;76.28;100433.02;1625015;86;25714;-79
2021/01/19 05:31:30;;;;;;;169.53;71.10;;;;;;;-10.93;76.38;100420.39;1622281;86;25876;-79
2021/01/19 05:34:02;;;;;;;168.13;70.57;;;;;;;-10.93;76.28;100422.92;1622906;86;26643;-79
2021/01/19 05:36:46;;;;;;;167.07;72.27;;;;;;;-10.93;76.34;100420.39;1615365;85;25792;-79
2021/01/19 05:39:18;;;;;;;176.67;74.60;;;;;;;-10.96;76.41;100413.70;1623541;86;25935;-79
2021/01/19 05:41:53;;;;;;;162.80;73.13;;;;;;;-10.90;76.50;100416.55;1621586;86;25826;-78
2021/01/19 05:44:32;;;;;;;179.37;75.83;;;;;;;-10.87;76.56;100418.58;1624031;86;25891;-79
2021/01/19 05:47:05;;;;;;;169.03;71.37;;;;;;;-10.80;76.65;100414.27;1622353;86;26027;-78
2021/01/19 05:49:41;;;;;;;158.67;68.13;;;;;;;-10.76;76.60;100407.02;1621522;86;25899;-78
2021/01/19 05:52:16;;;;;;;170.13;71.07;;;;;;;-10.75;76.48;100402.35;1620923;86;25814;-78
2021/01/19 05:54:47;;;;;;;166.83;73.27;;;;;;;-10.74;76.49;100404.03;1599369;86;25872;-79
2021/01/19 05:57:22;;;;;;;155.90;67.13;;;;;;;-10.70;76.53;100402.27;1621183;86;25849;-78
2021/01/19 05:59:58;;;;;;;157.77;73.23;;;;;;;-10.71;76.58;100410.28;1613358;86;25437;-78
2021/01/19 06:02:37;;;;;;;165.70;68.87;;;;;;;-10.64;76.73;100416.89;1617397;86;26581;-78
2021/01/19 06:05:15;;;;;;;177.07;73.67;;;;;;;-10.58;76.85;100426.03;1610697;86;25954;-79
2021/01/19 06:07:48;;;;;;;172.77;71.00;;;;;;;-10.54;76.82;100415.00;1589700;88;26500;-79
2021/01/19 06:10:20;;;;;;;176.10;75.03;;;;;;;-10.50;76.81;100415.35;1580053;86;25796;-78
2021/01/19 06:12:46;;;;;;;156.73;67.63;;;;;;;-10.46;76.85;100416.94;1610479;86;25837;-77
2021/01/19 06:15:13;;;;;;;161.77;67.93;;;;;;;-10.46;76.75;100421.16;1616642;86;25914;-79
2021/01/19 06:17:40;;;;;;;170.70;72.87;;;;;;;-10.44;76.76;100409.34;1617418;86;26369;-78
2021/01/19 06:20:08;;;;;;;165.87;68.47;;;;;;;-10.46;76.82;100408.53;1619762;86;26543;-79
2021/01/19 06:22:35;;;;;;;174.33;75.70;;;;;;;-10.45;76.92;100409.75;1615518;86;27522;-79
2021/01/19 06:25:04;;;;;;;179.20;92.63;;;;;;;-10.40;77.08;100404.61;1618701;86;26251;-78
2021/01/19 06:27:34;;;;;;;174.65;79.85;;;;;;;-10.37;77.08;100401.58;1617856;86;25970;-78
2021/01/19 06:30:07;;;;;;;169.45;77.12;;;;;;;-10.35;77.06;100392.72;1615904;86;25645;-79
2021/01/19 06:32:45;;;;;;;172.67;76.13;;;;;;;-10.32;77.12;100394.73;1617744;86;25887;-78
2021/01/19 06:35:21;;;;;;;162.90;72.53;;;;;;;-10.27;77.15;100400.97;1616711;86;25871;-79
2021/01/19 06:37:51;;;;;;;165.70;70.17;;;;;;;-10.25;77.18;100392.08;1591883;88;25938;-79
2021/01/19 06:40:21;;;;;;;150.42;67.37;;;;;;;-10.27;77.10;100384.55;1621345;86;25602;-79
2021/01/19 06:43:01;;;;;;;171.32;72.42;;;;;;;-10.27;77.21;100388.34;1590249;88;25758;-79
2021/01/19 06:45:29;;;;;;;171.90;74.30;;;;;;;-10.23;77.23;100384.01;1616733;86;26652;-79
2021/01/19 06:47:58;;;;;;;163.87;71.70;;;;;;;-10.24;77.22;100385.71;1572238;89;26036;-79
2021/01/19 06:50:28;;;;;;;155.00;67.77;;;;;;;-10.25;77.23;100379.00;1580677;89;25732;-81
2021/01/19 06:53:16;;;;;;;162.50;70.03;;;;;;;-10.24;77.25;100374.34;1580595;89;25697;-79
2021/01/19 06:55:51;;;;;;;162.93;72.37;;;;;;;-10.23;77.33;100383.60;1568146;89;26511;-79
2021/01/19 06:58:52;;;;;;;156.00;68.63;;;;;;;-10.17;77.41;100378.41;1573993;89;25797;-79
2021/01/19 07:01:28;;;;;;;166.13;70.57;;;;;;;-10.15;77.38;100371.63;1626409;86;26429;-79
2021/01/19 07:04:20;;;;;;;172.50;70.73;;;;;;;-10.10;77.49;100374.86;1625334;86;25821;-79
2021/01/19 07:07:18;;;;;;;166.47;70.63;;;;;;;-10.07;77.56;100373.96;1627358;86;25873;-79
2021/01/19 07:10:09;;;;;;;153.70;70.87;;;;;;;-10.01;77.66;100379.31;1628380;85;26553;-79
2021/01/19 07:13:04;;;;;;;155.27;71.03;;;;;;;-9.96;77.70;100378.77;1629071;86;25317;-79
2021/01/19 07:15:48;;;;;;;166.30;69.87;;;;;;;-9.97;77.71;100369.10;1628847;86;26036;-78
2021/01/19 07:18:53;;;;;;;173.87;72.40;;;;;;;-9.88;77.67;100390.80;1615139;86;25903;-79
2021/01/19 07:21:21;;;;;;;165.40;69.57;;;;;;;-9.85;77.70;100384.41;1665478;83;26023;-79
2021/01/19 07:23:58;;;;;;;166.50;73.60;;;;;;;-9.81;77.78;100376.34;1666995;84;26643;-79
2021/01/19 07:26:40;;;;;;;184.00;70.20;;;;;;;-9.85;77.64;100373.89;1656041;84;25985;-79
2021/01/19 07:29:07;;;;;;;151.77;68.87;;;;;;;-9.84;77.75;100373.02;1667736;84;25711;-79
2021/01/19 07:31:34;;;;;;;160.63;72.87;;;;;;;-9.83;77.81;100368.78;1668400;83;25763;-79
2021/01/19 07:34:11;;;;;;;160.33;71.13;;;;;;;-9.83;77.75;100372.57;1668822;84;25626;-79
2021/01/19 07:36:38;;;;;;;157.80;69.43;;;;;;;-9.81;77.78;100373.38;1667673;83;25542;-79
2021/01/19 07:39:13;;;;;;;179.30;75.63;;;;;;;-9.76;77.87;100375.36;1666930;84;25590;-79
2021/01/19 07:41:40;;;;;;;150.50;68.67;;;;;;;-9.75;77.73;100382.07;1666605;84;27043;-79
2021/01/19 07:44:06;;;;;;;160.30;73.33;;;;;;;-9.76;77.73;100379.16;1669622;84;25444;-79
2021/01/19 07:46:33;;;;;;;178.33;71.13;;;;;;;-9.77;77.67;100378.73;1666044;83;26573;-79
2021/01/19 07:49:03;;;;;;;167.40;73.67;;;;;;;-9.75;77.76;100369.87;1664458;84;25969;-79
2021/01/19 07:51:44;;;;;;;161.20;73.10;;;;;;;-9.77;77.70;100364.01;1667078;83;25875;-78
2021/01/19 07:54:24;;;;;;;163.33;73.23;;;;;;;-9.73;77.82;100361.38;1662800;84;25796;-79
2021/01/19 07:56:50;;;;;;;160.55;69.82;;;;;;;-9.67;77.87;100359.96;1666551;84;25827;-79
2021/01/19 07:59:20;;;;;;;171.57;78.63;;;;;;;-9.61;77.91;100348.42;1666153;84;25782;-79
2021/01/19 08:01:54;;;;;;;;;;;;;;;-9.59;77.87;100355.16;1669231;84;25771;-79
2021/01/19 08:04:30;;;;;;;164.07;72.47;;;;;;;-9.56;77.93;100358.87;1665736;83;25790;-79
2021/01/19 08:06:58;;;;;;;164.53;73.67;;;;;;;-9.51;78.04;100354.53;1665063;83;25813;-80
2021/01/19 08:09:24;;;;;;;155.93;73.37;;;;;;;-9.46;78.04;100355.25;1668478;84;25682;-79
2021/01/19 08:12:14;;;;;;;166.40;75.57;;;;;;;-9.43;78.07;100353.91;1666802;83;25666;-79
2021/01/19 08:14:47;;;;;;;182.17;80.70;;;;;;;-9.39;78.06;100363.89;1667888;84;25470;-79
2021/01/19 08:17:14;;;;;;;164.90;71.03;;;;;;;-9.33;77.97;100364.20;1667801;84;25597;-79
2021/01/19 08:19:45;;;;;;;172.13;75.87;;;;;;;-9.29;77.99;100358.61;1667737;83;25732;-80
2021/01/19 08:22:19;;;;;;;172.33;77.23;;;;;;;-9.26;77.92;100360.62;1667377;83;25593;-80
2021/01/19 08:24:46;;;;;;;168.90;77.70;;;;;;;-9.24;77.94;100347.50;1666713;84;25886;-80
2021/01/19 08:27:12;;;;;;;171.30;80.37;;;;;;;-9.20;77.95;100344.44;1668944;84;26004;-80
2021/01/19 08:29:41;;;;;;;164.00;73.17;;;;;;;-9.16;77.90;100351.09;1669926;83;25507;-80
2021/01/19 08:32:09;;;;;;;175.65;77.80;;;;;;;-9.11;78.00;100351.81;1640482;85;25859;-80
2021/01/19 08:34:39;;;;;;;162.77;70.83;;;;;;;-9.07;77.95;100349.58;1667490;83;25197;-80
2021/01/19 08:37:05;;;;;;;162.63;72.33;;;;;;;-9.04;77.98;100347.40;1668380;84;25573;-80
2021/01/19 08:39:32;;;;;;;173.87;76.53;;;;;;;-9.01;78.08;100344.78;1668805;84;25935;-79
2021/01/19 08:41:58;;;;;;;165.47;73.30;;;;;;;-8.97;77.99;100344.66;1667365;84;25882;-80
2021/01/19 08:44:25;;;;;;;163.80;73.40;;;;;;;-9.00;77.94;100342.22;1666505;84;26520;-80
2021/01/19 08:46:52;;;;;;;164.57;75.93;;;;;;;-8.97;77.98;100346.38;1667918;84;25759;-80
2021/01/19 08:49:18;;;;;;;164.90;75.17;;;;;;;-8.93;78.10;100341.60;1643662;84;25759;-80
2021/01/19 08:51:50;;;;;;;165.83;72.03;;;;;;;-8.88;78.11;100346.11;1666817;84;25763;-80
2021/01/19 08:54:19;;;;;;;175.17;77.57;;;;;;;-8.83;78.20;100349.79;1665706;84;25707;-80
2021/01/19 08:56:46;;;;;;;156.27;73.60;;;;;;;-8.78;78.17;100345.42;1665790;83;25842;-80
2021/01/19 08:59:19;;;;;;;166.23;78.53;;;;;;;-8.73;78.23;100342.30;1666643;84;25850;-80
2021/01/19 09:01:54;;;;;;;175.43;76.47;;;;;;;-8.70;78.15;100339.71;1667802;84;25847;-80
2021/01/19 09:04:29;;;;;;;178.87;78.57;;;;;;;-8.64;78.17;100341.23;1665995;84;25774;-80
2021/01/19 09:07:08;;;;;;;188.90;80.70;;;;;;;-8.63;78.11;100336.11;1666853;84;25843;-80
2021/01/19 09:09:35;;;;;;;176.97;79.87;;;;;;;-8.57;78.24;100327.50;1667482;84;26501;-79
2021/01/19 09:12:01;;;;;;;181.33;77.47;;;;;;;-8.52;78.24;100325.66;1667277;84;26323;-79
2021/01/19 09:14:29;;;;;;;174.50;80.13;;;;;;;-8.52;78.14;100330.28;1666752;83;25866;-79
2021/01/19 09:16:56;;;;;;;191.30;77.33;;;;;;;-8.54;78.11;100329.53;1668197;83;25828;-79
2021/01/19 09:19:23;;;;;;;173.87;78.60;;;;;;;-8.51;78.20;100334.50;1670681;84;25621;-80
2021/01/19 09:21:50;;;;;;;176.83;79.37;;;;;;;-8.47;78.25;100339.47;1669173;84;25787;-81
2021/01/19 09:24:24;;;;;;;176.77;78.33;;;;;;;-8.47;78.13;100336.94;1667544;84;25601;-81
2021/01/19 09:27:01;;;;;;;174.33;75.43;;;;;;;-8.46;78.21;100334.34;1668151;84;25586;-81
2021/01/19 09:29:31;;;;;;;166.17;77.37;;;;;;;-8.44;78.21;100334.31;1668641;83;25534;-81
2021/01/19 09:32:02;;;;;;;177.12;80.97;;;;;;;-8.44;78.22;100335.13;1670156;83;25459;-81
2021/01/19 09:34:31;;;;;;;185.57;79.37;;;;;;;-8.39;78.43;100329.49;1669051;84;25827;-81
2021/01/19 09:36:58;;;;;;;175.47;75.03;;;;;;;-8.26;78.65;100332.47;1668561;83;25208;-81
2021/01/19 09:39:31;;;;;;;169.67;80.93;;;;;;;-8.18;78.57;100319.12;1669077;84;25584;-81
2021/01/19 09:42:00;;;;;;;163.87;77.50;;;;;;;-8.17;78.43;100321.20;1668905;83;26130;-81
2021/01/19 09:44:30;;;;;;;180.33;81.50;;;;;;;-8.14;78.46;100319.40;1668623;83;25453;-81
2021/01/19 09:47:03;;;;;;;181.13;81.27;;;;;;;-8.06;78.56;100324.23;1668190;84;26286;-81
2021/01/19 09:49:31;;;;;;;184.87;83.27;;;;;;;-8.06;78.47;100317.89;1668357;84;26249;-81
2021/01/19 09:52:12;;;;;;;174.70;77.90;;;;;;;-8.06;78.45;100308.58;1666469;84;25753;-81
2021/01/19 09:54:39;;;;;;;180.20;78.03;;;;;;;-8.04;78.40;100304.30;1666224;84;26558;-81
2021/01/19 09:57:09;;;;;;;180.23;77.13;;;;;;;-8.01;78.48;100304.64;1666893;84;25567;-81
2021/01/19 09:59:38;;;;;;;167.55;74.25;;;;;;;-7.96;78.58;100304.50;1669450;84;26407;-81
2021/01/19 10:02:04;;;;;;;168.13;76.43;;;;;;;-7.92;78.59;100299.70;1666978;84;25562;-81
2021/01/19 10:04:31;;;;;;;176.13;77.60;;;;;;;-7.90;78.60;100295.42;1669443;84;25596;-82
2021/01/19 10:07:09;;;;;;;174.03;79.47;;;;;;;-7.91;78.59;100290.79;1668402;84;25712;-82
2021/01/19 10:09:37;;;;;;;168.90;76.20;;;;;;;-7.92;78.46;100290.83;1667918;84;25783;-82
2021/01/19 10:12:08;;;;;;;155.13;69.33;;;;;;;-7.88;78.70;100289.42;1667204;84;25598;-81
2021/01/19 10:14:41;;;;;;;179.83;82.30;;;;;;;-7.81;78.71;100288.32;1667208;84;25492;-82
2021/01/19 10:17:08;;;;;;;166.60;79.60;;;;;;;-7.78;78.72;100283.59;1668181;84;25716;-81
2021/01/19 10:19:37;;;;;;;159.27;79.03;;;;;;;-7.73;78.79;100275.83;1668289;84;25949;-82
2021/01/19 10:22:07;;;;;;;166.70;76.60;;;;;;;-7.70;78.74;100276.55;1668960;84;25553;-81
2021/01/19 10:24:34;;;;;;;159.78;75.22;;;;;;;-7.66;78.75;100273.49;1666667;83;33016;-82
2021/01/19 10:27:06;;;;;;;168.33;79.70;;;;;;;-7.63;78.79;100265.77;1666391;84;25612;-81
2021/01/19 10:29:42;;;;;;;169.50;78.67;;;;;;;-7.59;78.77;100267.31;1668308;84;25562;-81
2021/01/19 10:32:12;;;;;;;164.90;75.40;;;;;;;-7.56;78.83;100258.32;1668744;84;25511;-82
2021/01/19 10:34:45;;;;;;;165.63;78.83;;;;;;;-7.51;78.80;100261.53;1667644;84;25812;-82
2021/01/19 10:37:12;;;;;;;167.47;75.47;;;;;;;-7.48;78.84;100261.87;1668706;84;26806;-82
2021/01/19 10:39:59;;;;;;;163.47;77.33;;;;;;;-7.44;78.86;100259.62;1643955;84;25903;-83
2021/01/19 10:42:33;;;;;;;169.27;77.50;;;;;;;-7.44;78.82;100255.81;1664316;83;26464;-82
2021/01/19 10:45:04;;;;;;;186.77;83.47;;;;;;;-7.43;78.88;100254.92;1666301;84;26622;-82
2021/01/19 10:47:43;;;;;;;173.50;82.50;;;;;;;-7.38;78.95;100252.61;1665256;84;25721;-81
2021/01/19 10:50:16;;;;;;;173.77;80.03;;;;;;;-7.33;79.02;100246.55;1671125;84;27070;-82
2021/01/19 10:53:04;;;;;;;167.97;76.67;;;;;;;-7.29;78.98;100241.30;1666349;84;26363;-81
2021/01/19 10:55:32;;;;;;;167.83;77.37;;;;;;;-7.27;79.12;100237.45;1664800;84;26282;-81
2021/01/19 10:58:02;;;;;;;174.30;78.40;;;;;;;-7.22;79.06;100232.59;1665947;84;25710;-82
2021/01/19 11:00:30;;;;;;;172.53;75.28;;;;;;;-7.23;79.03;100237.30;1666951;83;25719;-82
2021/01/19 11:02:57;;;;;;;160.63;76.63;;;;;;;-7.19;79.14;100240.09;1665416;83;25888;-82
2021/01/19 11:05:25;;;;;;;176.60;81.57;;;;;;;-7.12;79.29;100237.32;1666604;84;26559;-82
2021/01/19 11:07:54;;;;;;;168.50;78.53;;;;;;;-7.06;79.32;100246.01;1667110;84;26037;-82
2021/01/19 11:10:24;;;;;;;173.13;79.33;;;;;;;-7.04;79.25;100234.05;1666818;83;25809;-82
2021/01/19 11:12:53;;;;;;;169.40;82.60;;;;;;;-7.01;79.14;100241.56;1666182;84;25851;-81
2021/01/19 11:15:20;;;;;;;169.25;79.67;;;;;;;-6.97;79.22;100235.50;1635223;83;25986;-81
2021/01/19 11:17:51;;;;;;;173.83;84.50;;;;;;;-6.93;79.25;100231.52;1663192;83;25908;-81
2021/01/19 11:20:19;;;;;;;167.47;76.10;;;;;;;-6.87;79.21;100220.75;1667943;84;25776;-82